PWSweather.com
Personal Weather Stations
Station Observations
PICKERING
North Yorkshire, PickeringGB

North YorkshirePickeringGB

Lat: 54.2494, Lon: -0.7725

Elevation: 192

Station Type: Oregon Scientific WMR100

http://www.yorkshirewalker.co.uk/weather/

Latest ConditionsUpdated 11:10:01 PM GMT Wednesday, Oct 16, 2019
Currently Today's Max Today's Min Today's Average
Temperature 38.7°F3.7°C 56.8°F13.8°C 38.7°F3.7°C 49.6°F9.8°C
Dew Point 33.8°F1.0°C 53.6°F12.0°C 33.8°F1.0°C 45.5°F7.5°C
Winds 0.9 mph ENE1.4 kmh ENE 11.8 mph -19.0 kmh - - 3.1 mph 5.0 kmh
Wind Gusts 0.9 mph1.4 kmh 15.9 mph25.6 kmh - -
Humidity 81% 92% 73% 84%
Pressure 29.56 in1001.0 mb 29.56 in1001.0 mb 29.41 in995.9 mb -
Hour Temp Dew Point Humidity Winds Wind Gusts Pressure Precip Precip Rate Daily Precip Total
11:10 PM 38.7°F3.7°C 33.8°F1.0°C 81% 0.9 mph ENE1.4 kmh ENE 0.9 mph1.4 kmh 29.56 in1001.0 mb 0.00 in0.0 mm 0.00 in0.0 mm 0.19 in4.8 mm
11:05 PM 38.8°F3.8°C 33.8°F1.0°C 82% 0.9 mph ENE1.4 kmh ENE 0.9 mph1.4 kmh 29.56 in1001.0 mb 0.00 in0.0 mm 0.00 in0.0 mm 0.19 in4.8 mm
11:00 PM 39.0°F3.9°C 33.8°F1.0°C 81% 0.9 mph ENE1.4 kmh ENE 0.9 mph1.4 kmh 29.56 in1001.0 mb 0.00 in0.0 mm 0.00 in0.0 mm 0.19 in4.8 mm
10:55 PM 38.8°F3.8°C 33.8°F1.0°C 81% 0.9 mph ENE1.4 kmh ENE 0.9 mph1.4 kmh 29.56 in1001.0 mb 0.00 in0.0 mm 0.00 in0.0 mm 0.18 in4.6 mm
10:50 PM 39.2°F4.0°C 33.8°F1.0°C 82% Calm Calm -- 29.56 in1001.0 mb 0.00 in0.0 mm 0.00 in0.0 mm 0.18 in4.6 mm
10:45 PM 39.4°F4.1°C 33.8°F1.0°C 82% Calm Calm -- 29.56 in1001.0 mb 0.00 in0.0 mm 0.00 in0.0 mm 0.18 in4.6 mm
10:40 PM 39.4°F4.1°C 33.8°F1.0°C 81% Calm Calm -- 29.56 in1001.0 mb 0.00 in0.0 mm 0.00 in0.0 mm 0.18 in4.6 mm
10:35 PM 39.4°F4.1°C 33.8°F1.0°C 81% Calm Calm -- 29.56 in1001.0 mb 0.00 in0.0 mm 0.00 in0.0 mm 0.18 in4.6 mm
10:30 PM 39.4°F4.1°C 33.8°F1.0°C 81% Calm Calm -- 29.56 in1001.0 mb 0.00 in0.0 mm 0.00 in0.0 mm 0.18 in4.6 mm
10:25 PM 39.7°F4.3°C 33.8°F1.0°C 81% Calm Calm -- 29.56 in1001.0 mb 0.00 in0.0 mm 0.00 in0.0 mm 0.18 in4.6 mm
10:20 PM 39.6°F4.2°C 33.8°F1.0°C 81% Calm Calm -- 29.56 in1001.0 mb 0.00 in0.0 mm 0.00 in0.0 mm 0.18 in4.6 mm
10:15 PM 39.7°F4.3°C 33.8°F1.0°C 81% Calm Calm -- 29.56 in1001.0 mb 0.00 in0.0 mm 0.00 in0.0 mm 0.18 in4.6 mm
10:10 PM 39.7°F4.3°C 33.8°F1.0°C 81% Calm Calm -- 29.56 in1001.0 mb 0.00 in0.0 mm 0.00 in0.0 mm 0.18 in4.6 mm
10:05 PM 40.1°F4.5°C 35.6°F2.0°C 82% 1.6 mph NNE2.6 kmh NNE 2.7 mph4.3 kmh 29.56 in1001.0 mb 0.00 in0.0 mm 0.00 in0.0 mm 0.18 in4.6 mm
10:00 PM 40.3°F4.6°C 35.6°F2.0°C 82% 1.6 mph NNE2.6 kmh NNE 2.7 mph4.3 kmh 29.56 in1001.0 mb 0.00 in0.0 mm 0.00 in0.0 mm 0.18 in4.6 mm
09:55 PM 40.6°F4.8°C 35.6°F2.0°C 82% 0.6 mph NNE1.0 kmh NNE 2.5 mph4.0 kmh 29.56 in1001.0 mb 0.00 in0.0 mm 0.00 in0.0 mm 0.18 in4.6 mm
09:50 PM 40.6°F4.8°C 35.6°F2.0°C 82% 0.7 mph NE1.1 kmh NE 2.2 mph3.5 kmh 29.56 in1001.0 mb 0.00 in0.0 mm 0.00 in0.0 mm 0.18 in4.6 mm
09:45 PM 40.8°F4.9°C 35.6°F2.0°C 81% 0.9 mph NE1.4 kmh NE 2.2 mph3.5 kmh 29.56 in1001.0 mb 0.00 in0.0 mm 0.00 in0.0 mm 0.18 in4.6 mm
09:40 PM 40.8°F4.9°C 35.6°F2.0°C 81% Calm Calm -- 29.56 in1001.0 mb 0.00 in0.0 mm 0.00 in0.0 mm 0.18 in4.6 mm
09:35 PM 41.0°F5.0°C 35.6°F2.0°C 81% Calm Calm -- 29.56 in1001.0 mb 0.00 in0.0 mm 0.00 in0.0 mm 0.18 in4.6 mm
09:30 PM 41.2°F5.1°C 35.6°F2.0°C 81% Calm Calm -- 29.56 in1001.0 mb 0.00 in0.0 mm 0.00 in0.0 mm 0.18 in4.6 mm
09:25 PM 41.4°F5.2°C 35.6°F2.0°C 81% Calm Calm -- 29.56 in1001.0 mb 0.00 in0.0 mm 0.00 in0.0 mm 0.18 in4.6 mm
09:20 PM 41.5°F5.3°C 37.4°F3.0°C 81% Calm Calm -- 29.56 in1001.0 mb 0.00 in0.0 mm 0.00 in0.0 mm 0.18 in4.6 mm
09:15 PM 41.9°F5.5°C 37.4°F3.0°C 82% 0.7 mph SW1.1 kmh SW 2.5 mph4.0 kmh 29.56 in1001.0 mb 0.00 in0.0 mm 0.00 in0.0 mm 0.18 in4.6 mm
09:10 PM 42.3°F5.7°C 37.4°F3.0°C 81% 0.7 mph SW1.1 kmh SW 2.5 mph4.0 kmh 29.56 in1001.0 mb 0.00 in0.0 mm 0.00 in0.0 mm 0.18 in4.6 mm
09:05 PM 41.5°F5.3°C 37.4°F3.0°C 81% Calm Calm -- 29.56 in1001.0 mb 0.00 in0.0 mm 0.00 in0.0 mm 0.18 in4.6 mm
09:00 PM 41.4°F5.2°C 35.6°F2.0°C 81% Calm Calm -- 29.56 in1001.0 mb 0.00 in0.0 mm 0.00 in0.0 mm 0.18 in4.6 mm
08:55 PM 41.4°F5.2°C 35.6°F2.0°C 81% Calm Calm -- 29.56 in1001.0 mb 0.00 in0.0 mm 0.00 in0.0 mm 0.18 in4.6 mm
08:50 PM 41.5°F5.3°C 37.4°F3.0°C 81% Calm Calm -- 29.56 in1001.0 mb 0.00 in0.0 mm 0.00 in0.0 mm 0.18 in4.6 mm
08:45 PM 41.9°F5.5°C 37.4°F3.0°C 81% Calm Calm -- 29.56 in1001.0 mb 0.00 in0.0 mm 0.00 in0.0 mm 0.18 in4.6 mm
08:40 PM 41.7°F5.4°C 37.4°F3.0°C 80% Calm Calm -- 29.56 in1001.0 mb 0.00 in0.0 mm 0.00 in0.0 mm 0.18 in4.6 mm
08:35 PM 41.9°F5.5°C 37.4°F3.0°C 80% Calm Calm -- 29.53 in1000.0 mb 0.00 in0.0 mm 0.00 in0.0 mm 0.18 in4.6 mm
08:30 PM 42.1°F5.6°C 37.4°F3.0°C 80% Calm Calm -- 29.53 in1000.0 mb 0.00 in0.0 mm 0.00 in0.0 mm 0.18 in4.6 mm
08:25 PM 42.3°F5.7°C 37.4°F3.0°C 80% Calm Calm -- 29.53 in1000.0 mb 0.00 in0.0 mm 0.00 in0.0 mm 0.18 in4.6 mm
08:20 PM 42.4°F5.8°C 37.4°F3.0°C 80% Calm Calm -- 29.53 in1000.0 mb 0.00 in0.0 mm 0.00 in0.0 mm 0.18 in4.6 mm
08:15 PM 42.6°F5.9°C 37.4°F3.0°C 80% Calm Calm -- 29.53 in1000.0 mb 0.00 in0.0 mm 0.00 in0.0 mm 0.18 in4.6 mm
08:10 PM 42.8°F6.0°C 37.4°F3.0°C 80% Calm Calm -- 29.53 in1000.0 mb 0.00 in0.0 mm 0.00 in0.0 mm 0.18 in4.6 mm
08:05 PM 43.0°F6.1°C 37.4°F3.0°C 80% 0.1 mph NNE0.2 kmh NNE 1.3 mph2.1 kmh 29.53 in1000.0 mb 0.00 in0.0 mm 0.00 in0.0 mm 0.18 in4.6 mm
08:00 PM 43.2°F6.2°C 37.4°F3.0°C 80% 0.2 mph NNE0.3 kmh NNE 1.3 mph2.1 kmh 29.53 in1000.0 mb 0.00 in0.0 mm 0.00 in0.0 mm 0.18 in4.6 mm
07:55 PM 43.2°F6.2°C 37.4°F3.0°C 80% Calm Calm -- 29.53 in1000.0 mb 0.00 in0.0 mm 0.00 in0.0 mm 0.18 in4.6 mm
07:50 PM 43.3°F6.3°C 37.4°F3.0°C 80% Calm Calm -- 29.53 in1000.0 mb 0.00 in0.0 mm 0.00 in0.0 mm 0.18 in4.6 mm
07:45 PM 43.7°F6.5°C 39.2°F4.0°C 80% Calm Calm -- 29.53 in1000.0 mb 0.00 in0.0 mm 0.00 in0.0 mm 0.18 in4.6 mm
07:40 PM 43.7°F6.5°C 39.2°F4.0°C 80% Calm Calm -- 29.53 in1000.0 mb 0.00 in0.0 mm 0.00 in0.0 mm 0.18 in4.6 mm
07:35 PM 43.9°F6.6°C 39.2°F4.0°C 80% Calm Calm -- 29.53 in1000.0 mb 0.00 in0.0 mm 0.00 in0.0 mm 0.18 in4.6 mm
07:30 PM 44.2°F6.8°C 39.2°F4.0°C 80% Calm Calm -- 29.53 in1000.0 mb 0.00 in0.0 mm 0.00 in0.0 mm 0.18 in4.6 mm
07:25 PM 44.4°F6.9°C 39.2°F4.0°C 80% Calm Calm -- 29.53 in1000.0 mb 0.00 in0.0 mm 0.00 in0.0 mm 0.18 in4.6 mm
07:20 PM 44.6°F7.0°C 39.2°F4.0°C 80% Calm Calm -- 29.53 in1000.0 mb 0.00 in0.0 mm 0.00 in0.0 mm 0.18 in4.6 mm
07:15 PM 44.8°F7.1°C 39.2°F4.0°C 79% Calm Calm -- 29.53 in1000.0 mb 0.00 in0.0 mm 0.00 in0.0 mm 0.18 in4.6 mm
07:10 PM 45.0°F7.2°C 39.2°F4.0°C 79% Calm Calm -- 29.53 in1000.0 mb 0.00 in0.0 mm 0.00 in0.0 mm 0.18 in4.6 mm
07:05 PM 45.1°F7.3°C 39.2°F4.0°C 79% Calm Calm -- 29.53 in1000.0 mb 0.00 in0.0 mm 0.00 in0.0 mm 0.18 in4.6 mm
07:00 PM 45.7°F7.6°C 39.2°F4.0°C 79% Calm Calm -- 29.53 in1000.0 mb 0.00 in0.0 mm 0.00 in0.0 mm 0.18 in4.6 mm
06:55 PM 45.5°F7.5°C 39.2°F4.0°C 79% Calm Calm -- 29.53 in1000.0 mb 0.00 in0.0 mm 0.00 in0.0 mm 0.18 in4.6 mm
06:50 PM 45.7°F7.6°C 39.2°F4.0°C 79% Calm Calm -- 29.53 in1000.0 mb 0.00 in0.0 mm 0.00 in0.0 mm 0.18 in4.6 mm
06:45 PM 46.0°F7.8°C 39.2°F4.0°C 79% Calm Calm -- 29.53 in1000.0 mb 0.00 in0.0 mm 0.00 in0.0 mm 0.18 in4.6 mm
06:40 PM 46.4°F8.0°C 41.0°F5.0°C 79% Calm Calm -- 29.53 in1000.0 mb 0.00 in0.0 mm 0.00 in0.0 mm 0.18 in4.6 mm
06:35 PM 46.6°F8.1°C 41.0°F5.0°C 79% Calm Calm -- 29.50 in999.0 mb 0.00 in0.0 mm 0.00 in0.0 mm 0.18 in4.6 mm
06:30 PM 46.6°F8.1°C 41.0°F5.0°C 78% Calm Calm -- 29.50 in999.0 mb 0.00 in0.0 mm 0.00 in0.0 mm 0.18 in4.6 mm
06:25 PM 46.8°F8.2°C 41.0°F5.0°C 78% Calm Calm -- 29.50 in999.0 mb 0.00 in0.0 mm 0.00 in0.0 mm 0.18 in4.6 mm
06:20 PM 46.9°F8.3°C 41.0°F5.0°C 78% 0.2 mph SSW0.3 kmh SSW 2.0 mph3.2 kmh 29.50 in999.0 mb 0.00 in0.0 mm 0.00 in0.0 mm 0.18 in4.6 mm
06:15 PM 47.5°F8.6°C 41.0°F5.0°C 78% 0.7 mph WSW1.1 kmh WSW 2.5 mph4.0 kmh 29.50 in999.0 mb 0.00 in0.0 mm 0.00 in0.0 mm 0.18 in4.6 mm
06:10 PM 47.8°F8.8°C 42.8°F6.0°C 78% 1.4 mph WSW2.3 kmh WSW 2.5 mph4.0 kmh 29.50 in999.0 mb 0.00 in0.0 mm 0.00 in0.0 mm 0.18 in4.6 mm
06:05 PM 48.2°F9.0°C 42.8°F6.0°C 77% 1.6 mph WSW2.6 kmh WSW 2.5 mph4.0 kmh 29.50 in999.0 mb 0.00 in0.0 mm 0.00 in0.0 mm 0.18 in4.6 mm
06:00 PM 48.4°F9.1°C 42.8°F6.0°C 77% 0.9 mph SW1.4 kmh SW 1.1 mph1.8 kmh 29.50 in999.0 mb 0.00 in0.0 mm 0.00 in0.0 mm 0.18 in4.6 mm
05:55 PM 48.4°F9.1°C 42.8°F6.0°C 77% 0.9 mph SW1.4 kmh SW 1.1 mph1.8 kmh 29.50 in999.0 mb 0.00 in0.0 mm 0.00 in0.0 mm 0.18 in4.6 mm
05:50 PM 48.6°F9.2°C 42.8°F6.0°C 77% 0.6 mph SW1.0 kmh SW 1.1 mph1.8 kmh 29.50 in999.0 mb 0.00 in0.0 mm 0.00 in0.0 mm 0.18 in4.6 mm
05:45 PM 49.1°F9.5°C 42.8°F6.0°C 76% 0.4 mph SW0.6 kmh SW 1.1 mph1.8 kmh 29.50 in999.0 mb 0.00 in0.0 mm 0.00 in0.0 mm 0.18 in4.6 mm
05:40 PM 49.5°F9.7°C 42.8°F6.0°C 76% 0.3 mph WSW0.5 kmh WSW 2.5 mph4.0 kmh 29.50 in999.0 mb 0.00 in0.0 mm 0.00 in0.0 mm 0.18 in4.6 mm
05:35 PM 49.8°F9.9°C 42.8°F6.0°C 75% 1.3 mph W2.1 kmh W 2.5 mph4.0 kmh 29.50 in999.0 mb 0.00 in0.0 mm 0.00 in0.0 mm 0.18 in4.6 mm
05:30 PM 50.2°F10.1°C 42.8°F6.0°C 75% 3.1 mph WSW5.0 kmh WSW 5.4 mph8.7 kmh 29.50 in999.0 mb 0.00 in0.0 mm 0.00 in0.0 mm 0.18 in4.6 mm
05:25 PM 50.4°F10.2°C 42.8°F6.0°C 75% 3.5 mph WSW5.6 kmh WSW 5.4 mph8.7 kmh 29.50 in999.0 mb 0.00 in0.0 mm 0.00 in0.0 mm 0.18 in4.6 mm
05:20 PM 50.5°F10.3°C 42.8°F6.0°C 75% 3.6 mph WSW5.8 kmh WSW 4.7 mph7.6 kmh 29.50 in999.0 mb 0.00 in0.0 mm 0.00 in0.0 mm 0.18 in4.6 mm
05:15 PM 50.7°F10.4°C 42.8°F6.0°C 75% 2.6 mph WSW4.2 kmh WSW 4.3 mph6.9 kmh 29.50 in999.0 mb 0.00 in0.0 mm 0.00 in0.0 mm 0.18 in4.6 mm
05:10 PM 50.9°F10.5°C 44.6°F7.0°C 75% 2.3 mph W3.7 kmh W 3.8 mph6.1 kmh 29.50 in999.0 mb 0.00 in0.0 mm 0.00 in0.0 mm 0.18 in4.6 mm
05:05 PM 51.3°F10.7°C 42.8°F6.0°C 74% 3.3 mph WSW5.3 kmh WSW 4.9 mph7.9 kmh 29.50 in999.0 mb 0.00 in0.0 mm 0.00 in0.0 mm 0.18 in4.6 mm
05:00 PM 51.8°F11.0°C 44.6°F7.0°C 74% 4.0 mph WSW6.4 kmh WSW 5.4 mph8.7 kmh 29.50 in999.0 mb 0.00 in0.0 mm 0.00 in0.0 mm 0.18 in4.6 mm
04:55 PM 52.0°F11.1°C 44.6°F7.0°C 74% 4.1 mph WSW6.6 kmh WSW 6.0 mph9.7 kmh 29.50 in999.0 mb 0.00 in0.0 mm 0.00 in0.0 mm 0.18 in4.6 mm
04:50 PM 52.2°F11.2°C 44.6°F7.0°C 74% 4.6 mph WSW7.4 kmh WSW 6.5 mph10.5 kmh 29.50 in999.0 mb 0.00 in0.0 mm 0.00 in0.0 mm 0.18 in4.6 mm
04:45 PM 52.5°F11.4°C 44.6°F7.0°C 74% 4.6 mph WSW7.4 kmh WSW 6.5 mph10.5 kmh 29.50 in999.0 mb 0.00 in0.0 mm 0.00 in0.0 mm 0.18 in4.6 mm
04:40 PM 52.7°F11.5°C 44.6°F7.0°C 74% 3.8 mph W6.1 kmh W 4.9 mph7.9 kmh 29.50 in999.0 mb 0.00 in0.0 mm 0.00 in0.0 mm 0.18 in4.6 mm
04:35 PM 53.1°F11.7°C 44.6°F7.0°C 74% 4.7 mph W7.6 kmh W 5.8 mph9.3 kmh 29.47 in998.0 mb 0.00 in0.0 mm 0.00 in0.0 mm 0.18 in4.6 mm
04:30 PM 53.1°F11.7°C 46.4°F8.0°C 75% 5.0 mph W8.0 kmh W 6.0 mph9.7 kmh 29.47 in998.0 mb 0.00 in0.0 mm 0.00 in0.0 mm 0.18 in4.6 mm
04:25 PM 53.2°F11.8°C 46.4°F8.0°C 75% 5.4 mph WSW8.7 kmh WSW 7.4 mph11.9 kmh 29.47 in998.0 mb 0.00 in0.0 mm 0.00 in0.0 mm 0.18 in4.6 mm
04:20 PM 53.4°F11.9°C 46.4°F8.0°C 75% 5.5 mph WSW8.9 kmh WSW 7.4 mph11.9 kmh 29.47 in998.0 mb 0.00 in0.0 mm 0.00 in0.0 mm 0.18 in4.6 mm
04:15 PM 53.8°F12.1°C 46.4°F8.0°C 75% 5.4 mph WSW8.7 kmh WSW 7.4 mph11.9 kmh 29.47 in998.0 mb 0.00 in0.0 mm 0.00 in0.0 mm 0.18 in4.6 mm
04:10 PM 54.0°F12.2°C 46.4°F8.0°C 75% 5.3 mph WSW8.5 kmh WSW 6.5 mph10.5 kmh 29.47 in998.0 mb 0.00 in0.0 mm 0.00 in0.0 mm 0.18 in4.6 mm
04:05 PM 54.1°F12.3°C 48.2°F9.0°C 75% 4.9 mph WSW7.9 kmh WSW 6.5 mph10.5 kmh 29.47 in998.0 mb 0.00 in0.0 mm 0.00 in0.0 mm 0.18 in4.6 mm
04:00 PM 54.0°F12.2°C 46.4°F8.0°C 75% 4.1 mph WSW6.6 kmh WSW 6.0 mph9.7 kmh 29.47 in998.0 mb 0.00 in0.0 mm 0.00 in0.0 mm 0.18 in4.6 mm
03:55 PM 53.6°F12.0°C 46.4°F8.0°C 75% 4.0 mph WSW6.4 kmh WSW 5.4 mph8.7 kmh 29.47 in998.0 mb 0.00 in0.0 mm 0.00 in0.0 mm 0.18 in4.6 mm
03:50 PM 53.8°F12.1°C 46.4°F8.0°C 75% 4.6 mph WSW7.4 kmh WSW 5.6 mph9.0 kmh 29.47 in998.0 mb 0.00 in0.0 mm 0.00 in0.0 mm 0.18 in4.6 mm
03:45 PM 54.0°F12.2°C 46.4°F8.0°C 75% 5.9 mph WSW9.5 kmh WSW 8.1 mph13.0 kmh 29.47 in998.0 mb 0.00 in0.0 mm 0.00 in0.0 mm 0.18 in4.6 mm
03:40 PM 54.0°F12.2°C 46.4°F8.0°C 74% 6.8 mph WSW10.9 kmh WSW 8.1 mph13.0 kmh 29.47 in998.0 mb 0.00 in0.0 mm 0.00 in0.0 mm 0.18 in4.6 mm
03:35 PM 54.1°F12.3°C 46.4°F8.0°C 73% 8.0 mph SW12.9 kmh SW 8.1 mph13.0 kmh 29.47 in998.0 mb 0.00 in0.0 mm 0.00 in0.0 mm 0.18 in4.6 mm
03:30 PM 54.5°F12.5°C 46.4°F8.0°C 73% 7.8 mph WSW12.6 kmh WSW 8.7 mph14.0 kmh 29.47 in998.0 mb 0.00 in0.0 mm 0.00 in0.0 mm 0.18 in4.6 mm
03:25 PM 54.9°F12.7°C 46.4°F8.0°C 73% 8.0 mph W12.9 kmh W 10.1 mph16.3 kmh 29.47 in998.0 mb 0.00 in0.0 mm 0.00 in0.0 mm 0.18 in4.6 mm
03:20 PM 55.2°F12.9°C 48.2°F9.0°C 73% 7.5 mph W12.1 kmh W 10.1 mph16.3 kmh 29.45 in997.3 mb 0.00 in0.0 mm 0.00 in0.0 mm 0.18 in4.6 mm
03:15 PM 55.4°F13.0°C 48.2°F9.0°C 73% 7.3 mph W11.7 kmh W 10.1 mph16.3 kmh 29.45 in997.3 mb 0.00 in0.0 mm 0.00 in0.0 mm 0.18 in4.6 mm
03:10 PM 55.2°F12.9°C 48.2°F9.0°C 74% 6.2 mph W10.0 kmh W 10.1 mph16.3 kmh 29.45 in997.3 mb 0.00 in0.0 mm 0.00 in0.0 mm 0.18 in4.6 mm
03:05 PM 55.4°F13.0°C 48.2°F9.0°C 74% 5.2 mph WSW8.4 kmh WSW 7.8 mph12.6 kmh 29.45 in997.3 mb 0.00 in0.0 mm 0.00 in0.0 mm 0.18 in4.6 mm
03:00 PM 55.6°F13.1°C 48.2°F9.0°C 74% 6.5 mph WSW10.5 kmh WSW 10.5 mph16.9 kmh 29.45 in997.3 mb 0.00 in0.0 mm 0.00 in0.0 mm 0.18 in4.6 mm
02:55 PM 55.6°F13.1°C 48.2°F9.0°C 74% 7.8 mph WSW12.6 kmh WSW 10.5 mph16.9 kmh 29.45 in997.3 mb 0.00 in0.0 mm 0.00 in0.0 mm 0.18 in4.6 mm
02:50 PM 55.6°F13.1°C 48.2°F9.0°C 74% 8.7 mph WSW14.0 kmh WSW 10.5 mph16.9 kmh 29.45 in997.3 mb 0.00 in0.0 mm 0.00 in0.0 mm 0.18 in4.6 mm
02:45 PM 55.4°F13.0°C 48.2°F9.0°C 75% 8.0 mph SW12.9 kmh SW 10.1 mph16.3 kmh 29.45 in997.3 mb 0.00 in0.0 mm 0.00 in0.0 mm 0.18 in4.6 mm
02:40 PM 55.6°F13.1°C 48.2°F9.0°C 75% 10.2 mph WSW16.4 kmh WSW 15.9 mph25.6 kmh 29.45 in997.3 mb 0.00 in0.0 mm 0.00 in0.0 mm 0.18 in4.6 mm
02:35 PM 55.9°F13.3°C 48.2°F9.0°C 75% 11.8 mph WSW19.0 kmh WSW 15.9 mph25.6 kmh 29.45 in997.3 mb 0.00 in0.0 mm 0.00 in0.0 mm 0.18 in4.6 mm
02:30 PM 55.9°F13.3°C 50.0°F10.0°C 77% 11.1 mph WSW17.9 kmh WSW 12.8 mph20.6 kmh 29.45 in997.3 mb 0.00 in0.0 mm 0.00 in0.0 mm 0.18 in4.6 mm
02:25 PM 56.1°F13.4°C 50.0°F10.0°C 77% 9.4 mph WSW15.1 kmh WSW 12.8 mph20.6 kmh 29.45 in997.3 mb 0.00 in0.0 mm 0.00 in0.0 mm 0.18 in4.6 mm
02:20 PM 56.3°F13.5°C 50.0°F10.0°C 79% 8.9 mph W14.3 kmh W 9.8 mph15.8 kmh 29.45 in997.3 mb 0.00 in0.0 mm 0.00 in0.0 mm 0.18 in4.6 mm
02:15 PM 56.5°F13.6°C 51.8°F11.0°C 80% 7.7 mph WSW12.4 kmh WSW 9.8 mph15.8 kmh 29.45 in997.3 mb 0.00 in0.0 mm 0.00 in0.0 mm 0.18 in4.6 mm
02:10 PM 56.3°F13.5°C 51.8°F11.0°C 81% 7.7 mph WSW12.4 kmh WSW 12.3 mph19.8 kmh 29.45 in997.3 mb 0.00 in0.0 mm 0.00 in0.0 mm 0.18 in4.6 mm
02:05 PM 56.5°F13.6°C 51.8°F11.0°C 82% 7.6 mph WSW12.2 kmh WSW 12.8 mph20.6 kmh 29.45 in997.3 mb 0.00 in0.0 mm 0.00 in0.0 mm 0.18 in4.6 mm
02:00 PM 56.8°F13.8°C 51.8°F11.0°C 84% 6.2 mph WSW10.0 kmh WSW 12.8 mph20.6 kmh 29.45 in997.3 mb 0.00 in0.0 mm 0.00 in0.0 mm 0.18 in4.6 mm
01:55 PM 56.5°F13.6°C 53.6°F12.0°C 85% 3.6 mph WSW5.8 kmh WSW 5.6 mph9.0 kmh 29.45 in997.3 mb 0.00 in0.0 mm 0.00 in0.0 mm 0.18 in4.6 mm
01:50 PM 55.6°F13.1°C 51.8°F11.0°C 85% 3.6 mph WSW5.8 kmh WSW 6.5 mph10.5 kmh 29.45 in997.3 mb 0.00 in0.0 mm 0.00 in0.0 mm 0.18 in4.6 mm
01:45 PM 55.2°F12.9°C 51.8°F11.0°C 85% 5.5 mph W8.9 kmh W 10.3 mph16.6 kmh 29.45 in997.3 mb 0.00 in0.0 mm 0.00 in0.0 mm 0.18 in4.6 mm
01:40 PM 55.2°F12.9°C 51.8°F11.0°C 85% 6.6 mph W10.6 kmh W 10.3 mph16.6 kmh 29.45 in997.3 mb 0.00 in0.0 mm 0.00 in0.0 mm 0.18 in4.6 mm
01:35 PM 55.4°F13.0°C 51.8°F11.0°C 86% 6.8 mph W10.9 kmh W 9.6 mph15.4 kmh 29.45 in997.3 mb 0.00 in0.0 mm 0.00 in0.0 mm 0.18 in4.6 mm
01:30 PM 55.4°F13.0°C 51.8°F11.0°C 86% 6.6 mph WSW10.6 kmh WSW 9.6 mph15.4 kmh 29.45 in997.3 mb 0.00 in0.0 mm 0.00 in0.0 mm 0.18 in4.6 mm
01:25 PM 55.4°F13.0°C 51.8°F11.0°C 87% 4.9 mph WSW7.9 kmh WSW 9.6 mph15.4 kmh 29.45 in997.3 mb 0.00 in0.0 mm 0.00 in0.0 mm 0.18 in4.6 mm
01:20 PM 55.4°F13.0°C 51.8°F11.0°C 87% 6.2 mph WSW10.0 kmh WSW 10.5 mph16.9 kmh 29.45 in997.3 mb 0.00 in0.0 mm 0.00 in0.0 mm 0.18 in4.6 mm
01:15 PM 55.2°F12.9°C 51.8°F11.0°C 88% 6.8 mph WSW10.9 kmh WSW 10.5 mph16.9 kmh 29.45 in997.3 mb 0.00 in0.0 mm 0.00 in0.0 mm 0.18 in4.6 mm
01:10 PM 55.4°F13.0°C 53.6°F12.0°C 89% 4.6 mph WSW7.4 kmh WSW 10.5 mph16.9 kmh 29.45 in997.3 mb 0.00 in0.0 mm 0.00 in0.0 mm 0.18 in4.6 mm
01:05 PM 55.4°F13.0°C 53.6°F12.0°C 89% 5.3 mph WSW8.5 kmh WSW 10.5 mph16.9 kmh 29.45 in997.3 mb 0.00 in0.0 mm 0.00 in0.0 mm 0.18 in4.6 mm
01:00 PM 55.4°F13.0°C 53.6°F12.0°C 89% 5.2 mph WSW8.4 kmh WSW 7.2 mph11.6 kmh 29.45 in997.3 mb 0.00 in0.0 mm 0.00 in0.0 mm 0.18 in4.6 mm
12:55 PM 55.4°F13.0°C 53.6°F12.0°C 89% 5.3 mph WSW8.5 kmh WSW 8.7 mph14.0 kmh 29.45 in997.3 mb 0.00 in0.0 mm 0.00 in0.0 mm 0.18 in4.6 mm
12:50 PM 55.6°F13.1°C 53.6°F12.0°C 90% 4.9 mph SW7.9 kmh SW 10.1 mph16.3 kmh 29.41 in995.9 mb 0.00 in0.0 mm 0.00 in0.0 mm 0.18 in4.6 mm
12:45 PM 55.4°F13.0°C 53.6°F12.0°C 90% 4.1 mph WSW6.6 kmh WSW 10.1 mph16.3 kmh 29.41 in995.9 mb 0.00 in0.0 mm 0.00 in0.0 mm 0.18 in4.6 mm
12:40 PM 55.6°F13.1°C 53.6°F12.0°C 90% 3.6 mph WSW5.8 kmh WSW 6.5 mph10.5 kmh 29.41 in995.9 mb 0.00 in0.0 mm 0.00 in0.0 mm 0.18 in4.6 mm
12:35 PM 55.8°F13.2°C 53.6°F12.0°C 90% 3.0 mph WSW4.8 kmh WSW 5.4 mph8.7 kmh 29.41 in995.9 mb 0.00 in0.0 mm 0.00 in0.0 mm 0.18 in4.6 mm
12:30 PM 55.8°F13.2°C 53.6°F12.0°C 90% 2.8 mph SW4.5 kmh SW 5.4 mph8.7 kmh 29.41 in995.9 mb 0.00 in0.0 mm 0.00 in0.0 mm 0.18 in4.6 mm
12:25 PM 55.9°F13.3°C 53.6°F12.0°C 90% 2.8 mph WSW4.5 kmh WSW 4.9 mph7.9 kmh 29.41 in995.9 mb 0.00 in0.0 mm 0.00 in0.0 mm 0.18 in4.6 mm
12:20 PM 56.1°F13.4°C 53.6°F12.0°C 91% 2.4 mph WSW3.9 kmh WSW 4.9 mph7.9 kmh 29.41 in995.9 mb 0.00 in0.0 mm 0.00 in0.0 mm 0.18 in4.6 mm
12:15 PM 56.1°F13.4°C 53.6°F12.0°C 91% 2.1 mph SSW3.4 kmh SSW 5.4 mph8.7 kmh 29.41 in995.9 mb 0.00 in0.0 mm 0.00 in0.0 mm 0.18 in4.6 mm
12:10 PM 55.8°F13.2°C 53.6°F12.0°C 91% 3.1 mph SSW5.0 kmh SSW 8.5 mph13.7 kmh 29.41 in995.9 mb 0.00 in0.0 mm 0.00 in0.0 mm 0.18 in4.6 mm
12:05 PM 55.2°F12.9°C 53.6°F12.0°C 91% 3.6 mph SSW5.8 kmh SSW 8.5 mph13.7 kmh 29.41 in995.9 mb 0.00 in0.0 mm 0.00 in0.0 mm 0.18 in4.6 mm
12:00 PM 55.2°F12.9°C 53.6°F12.0°C 91% 2.9 mph SSW4.7 kmh SSW 6.3 mph10.1 kmh 29.41 in995.9 mb 0.00 in0.0 mm 0.00 in0.0 mm 0.18 in4.6 mm
11:55 AM 55.2°F12.9°C 53.6°F12.0°C 91% 2.6 mph SSW4.2 kmh SSW 5.6 mph9.0 kmh 29.41 in995.9 mb 0.00 in0.0 mm 0.00 in0.0 mm 0.18 in4.6 mm
11:50 AM 55.4°F13.0°C 53.6°F12.0°C 91% 3.3 mph S5.3 kmh S 5.6 mph9.0 kmh 29.41 in995.9 mb 0.00 in0.0 mm 0.00 in0.0 mm 0.18 in4.6 mm
11:45 AM 55.4°F13.0°C 53.6°F12.0°C 91% 4.5 mph SSW7.2 kmh SSW 6.5 mph10.5 kmh 29.41 in995.9 mb 0.00 in0.0 mm 0.00 in0.0 mm 0.18 in4.6 mm
11:40 AM 55.6°F13.1°C 53.6°F12.0°C 91% 4.5 mph SSW7.2 kmh SSW 6.5 mph10.5 kmh 29.41 in995.9 mb 0.00 in0.0 mm 0.00 in0.0 mm 0.18 in4.6 mm
11:35 AM 55.9°F13.3°C 53.6°F12.0°C 91% 3.6 mph S5.8 kmh S 6.0 mph9.7 kmh 29.41 in995.9 mb 0.00 in0.0 mm 0.00 in0.0 mm 0.18 in4.6 mm
11:30 AM 55.8°F13.2°C 53.6°F12.0°C 91% 3.8 mph S6.1 kmh S 4.9 mph7.9 kmh 29.41 in995.9 mb 0.00 in0.0 mm 0.00 in0.0 mm 0.18 in4.6 mm
11:25 AM 55.0°F12.8°C 53.6°F12.0°C 91% 3.7 mph S6.0 kmh S 4.9 mph7.9 kmh 29.41 in995.9 mb 0.00 in0.0 mm 0.00 in0.0 mm 0.18 in4.6 mm
11:20 AM 54.5°F12.5°C 53.6°F12.0°C 91% 3.6 mph S5.8 kmh S 5.8 mph9.3 kmh 29.41 in995.9 mb 0.00 in0.0 mm 0.00 in0.0 mm 0.18 in4.6 mm
11:15 AM 54.0°F12.2°C 51.8°F11.0°C 91% 3.9 mph SSW6.3 kmh SSW 8.1 mph13.0 kmh 29.41 in995.9 mb 0.00 in0.0 mm 0.00 in0.0 mm 0.18 in4.6 mm
11:10 AM 54.0°F12.2°C 51.8°F11.0°C 91% 4.7 mph S7.6 kmh S 8.1 mph13.0 kmh 29.41 in995.9 mb 0.00 in0.0 mm 0.00 in0.0 mm 0.18 in4.6 mm
11:05 AM 54.0°F12.2°C 51.8°F11.0°C 91% 4.8 mph S7.7 kmh S 7.8 mph12.6 kmh 29.41 in995.9 mb 0.00 in0.0 mm 0.00 in0.0 mm 0.18 in4.6 mm
11:00 AM 53.8°F12.1°C 51.8°F11.0°C 91% 3.9 mph S6.3 kmh S 6.0 mph9.7 kmh 29.41 in995.9 mb 0.00 in0.0 mm 0.00 in0.0 mm 0.18 in4.6 mm
10:55 AM 53.8°F12.1°C 51.8°F11.0°C 92% 3.5 mph SSE5.6 kmh SSE 6.5 mph10.5 kmh 29.41 in995.9 mb 0.06 in1.5 mm 0.00 in0.0 mm 0.18 in4.6 mm
10:50 AM 53.6°F12.0°C 51.8°F11.0°C 91% 3.1 mph SSE5.0 kmh SSE 6.5 mph10.5 kmh 29.41 in995.9 mb 0.06 in1.5 mm 0.00 in0.0 mm 0.18 in4.6 mm
10:45 AM 53.6°F12.0°C 51.8°F11.0°C 91% 2.9 mph SSE4.7 kmh SSE 4.9 mph7.9 kmh 29.41 in995.9 mb 0.06 in1.5 mm 0.00 in0.0 mm 0.18 in4.6 mm
10:40 AM 53.2°F11.8°C 50.0°F10.0°C 91% 2.9 mph SSE4.7 kmh SSE 4.9 mph7.9 kmh 29.41 in995.9 mb 0.06 in1.5 mm 0.00 in0.0 mm 0.18 in4.6 mm
10:35 AM 53.2°F11.8°C 50.0°F10.0°C 91% 3.0 mph SSE4.8 kmh SSE 4.9 mph7.9 kmh 29.41 in995.9 mb 0.06 in1.5 mm 0.00 in0.0 mm 0.18 in4.6 mm
10:30 AM 53.1°F11.7°C 50.0°F10.0°C 91% 3.6 mph SSE5.8 kmh SSE 7.2 mph11.6 kmh 29.41 in995.9 mb 0.06 in1.5 mm 0.00 in0.0 mm 0.18 in4.6 mm
10:25 AM 53.1°F11.7°C 50.0°F10.0°C 91% 3.5 mph SSE5.6 kmh SSE 7.2 mph11.6 kmh 29.41 in995.9 mb 0.06 in1.5 mm 0.00 in0.0 mm 0.18 in4.6 mm
10:20 AM 53.1°F11.7°C 50.0°F10.0°C 91% 2.7 mph S4.3 kmh S 4.3 mph6.9 kmh 29.41 in995.9 mb 0.06 in1.5 mm 0.00 in0.0 mm 0.18 in4.6 mm
10:15 AM 52.9°F11.6°C 50.0°F10.0°C 91% 2.7 mph SSE4.3 kmh SSE 4.3 mph6.9 kmh 29.41 in995.9 mb 0.13 in3.3 mm 0.00 in0.0 mm 0.18 in4.6 mm
10:10 AM 52.7°F11.5°C 50.0°F10.0°C 91% 2.4 mph SE3.9 kmh SE 4.3 mph6.9 kmh 29.41 in995.9 mb 0.13 in3.3 mm 0.00 in0.0 mm 0.18 in4.6 mm
10:05 AM 52.5°F11.4°C 50.0°F10.0°C 91% 2.2 mph SSE3.5 kmh SSE 4.3 mph6.9 kmh 29.41 in995.9 mb 0.13 in3.3 mm 0.00 in0.0 mm 0.18 in4.6 mm
10:00 AM 52.5°F11.4°C 50.0°F10.0°C 91% 2.9 mph SE4.7 kmh SE 6.3 mph10.1 kmh 29.41 in995.9 mb 0.13 in3.3 mm 0.07 in1.8 mm 0.18 in4.6 mm
09:55 AM 52.5°F11.4°C 50.0°F10.0°C 91% 3.3 mph SE5.3 kmh SE 6.3 mph10.1 kmh 29.41 in995.9 mb 0.07 in1.8 mm 0.00 in0.0 mm 0.13 in3.3 mm
09:50 AM 52.3°F11.3°C 50.0°F10.0°C 90% 3.9 mph SE6.3 kmh SE 6.3 mph10.1 kmh 29.41 in995.9 mb 0.13 in3.3 mm 0.00 in0.0 mm 0.13 in3.3 mm
09:45 AM 52.3°F11.3°C 50.0°F10.0°C 90% 4.4 mph SE7.1 kmh SE 6.3 mph10.1 kmh 29.41 in995.9 mb 0.13 in3.3 mm 0.00 in0.0 mm 0.13 in3.3 mm
09:40 AM 52.0°F11.1°C 48.2°F9.0°C 90% 4.5 mph SE7.2 kmh SE 6.3 mph10.1 kmh 29.41 in995.9 mb 0.13 in3.3 mm 0.00 in0.0 mm 0.13 in3.3 mm
09:35 AM 52.0°F11.1°C 48.2°F9.0°C 90% 4.2 mph SE6.8 kmh SE 5.8 mph9.3 kmh 29.41 in995.9 mb 0.13 in3.3 mm 0.00 in0.0 mm 0.13 in3.3 mm
09:30 AM 51.8°F11.0°C 48.2°F9.0°C 90% 3.9 mph SE6.3 kmh SE 5.8 mph9.3 kmh 29.41 in995.9 mb 0.13 in3.3 mm 0.00 in0.0 mm 0.13 in3.3 mm
09:25 AM 51.8°F11.0°C 48.2°F9.0°C 90% 3.6 mph SE5.8 kmh SE 5.4 mph8.7 kmh 29.41 in995.9 mb 0.13 in3.3 mm 0.00 in0.0 mm 0.13 in3.3 mm
09:20 AM 51.6°F10.9°C 48.2°F9.0°C 90% 4.0 mph SE6.4 kmh SE 6.0 mph9.7 kmh 29.41 in995.9 mb 0.13 in3.3 mm 0.42 in10.7 mm 0.13 in3.3 mm
09:10 AM 51.6°F10.9°C 48.2°F9.0°C 90% 3.8 mph SE6.1 kmh SE 6.3 mph10.1 kmh 29.41 in995.9 mb 0.06 in1.5 mm 0.00 in0.0 mm 0.06 in1.5 mm
09:05 AM 51.6°F10.9°C 48.2°F9.0°C 89% 3.9 mph SE6.3 kmh SE 6.0 mph9.7 kmh 29.41 in995.9 mb 0.06 in1.5 mm 0.00 in0.0 mm 0.06 in1.5 mm
09:00 AM 51.6°F10.9°C 48.2°F9.0°C 89% 4.7 mph SE7.6 kmh SE 6.5 mph10.5 kmh 29.41 in995.9 mb 0.06 in1.5 mm 0.00 in0.0 mm 0.06 in1.5 mm
08:55 AM 51.6°F10.9°C 48.2°F9.0°C 89% 5.4 mph SE8.7 kmh SE 7.4 mph11.9 kmh 29.41 in995.9 mb 0.06 in1.5 mm 0.72 in18.3 mm 0.06 in1.5 mm
08:50 AM 51.4°F10.8°C 48.2°F9.0°C 89% 4.7 mph SE7.6 kmh SE 7.8 mph12.6 kmh 29.41 in995.9 mb 0.00 in0.0 mm 0.00 in0.0 mm 0.00 in0.0 mm
08:45 AM 51.3°F10.7°C 48.2°F9.0°C 89% 3.8 mph SE6.1 kmh SE 7.8 mph12.6 kmh 29.41 in995.9 mb 0.00 in0.0 mm 0.00 in0.0 mm 0.00 in0.0 mm
08:40 AM 51.3°F10.7°C 48.2°F9.0°C 89% 4.6 mph SE7.4 kmh SE 7.8 mph12.6 kmh 29.41 in995.9 mb 0.00 in0.0 mm 0.00 in0.0 mm 0.00 in0.0 mm
08:35 AM 51.1°F10.6°C 48.2°F9.0°C 89% 4.8 mph SE7.7 kmh SE 7.8 mph12.6 kmh 29.41 in995.9 mb 0.00 in0.0 mm 0.00 in0.0 mm 0.00 in0.0 mm
08:30 AM 51.1°F10.6°C 48.2°F9.0°C 89% 4.1 mph ESE6.6 kmh ESE 5.4 mph8.7 kmh 29.41 in995.9 mb 0.00 in0.0 mm 0.00 in0.0 mm 0.00 in0.0 mm
08:25 AM 50.9°F10.5°C 48.2°F9.0°C 89% 4.2 mph ESE6.8 kmh ESE 5.4 mph8.7 kmh 29.41 in995.9 mb 0.00 in0.0 mm 0.00 in0.0 mm 0.00 in0.0 mm
08:20 AM 50.9°F10.5°C 48.2°F9.0°C 89% 5.4 mph SE8.7 kmh SE 6.3 mph10.1 kmh 29.41 in995.9 mb 0.00 in0.0 mm 0.00 in0.0 mm 0.00 in0.0 mm
08:15 AM 50.9°F10.5°C 48.2°F9.0°C 88% 6.3 mph SE10.1 kmh SE 6.3 mph10.1 kmh 29.41 in995.9 mb 0.00 in0.0 mm 0.00 in0.0 mm 0.00 in0.0 mm
08:10 AM 50.7°F10.4°C 48.2°F9.0°C 88% 6.3 mph SE10.1 kmh SE 6.3 mph10.1 kmh 29.41 in995.9 mb 0.00 in0.0 mm 0.00 in0.0 mm 0.00 in0.0 mm
08:05 AM 50.7°F10.4°C 48.2°F9.0°C 88% 6.3 mph SE10.1 kmh SE 6.3 mph10.1 kmh 29.41 in995.9 mb 0.00 in0.0 mm 0.00 in0.0 mm 0.00 in0.0 mm
08:00 AM 50.5°F10.3°C 48.2°F9.0°C 88% 7.8 mph SE12.6 kmh SE 7.8 mph12.6 kmh 29.41 in995.9 mb 0.00 in0.0 mm 0.00 in0.0 mm 0.00 in0.0 mm
07:55 AM 50.4°F10.2°C 48.2°F9.0°C 88% 7.8 mph SE12.6 kmh SE 7.8 mph12.6 kmh 29.41 in995.9 mb 0.00 in0.0 mm 0.00 in0.0 mm 0.00 in0.0 mm
07:50 AM 50.4°F10.2°C 48.2°F9.0°C 88% 7.8 mph SE12.6 kmh SE 7.8 mph12.6 kmh 29.41 in995.9 mb 0.00 in0.0 mm 0.00 in0.0 mm 0.00 in0.0 mm
07:45 AM 50.4°F10.2°C 48.2°F9.0°C 88% 6.4 mph SE10.3 kmh SE 7.8 mph12.6 kmh 29.41 in995.9 mb 0.00 in0.0 mm 0.00 in0.0 mm 0.00 in0.0 mm
07:40 AM 50.2°F10.1°C 46.4°F8.0°C 88% 5.0 mph SE8.0 kmh SE 7.8 mph12.6 kmh 29.41 in995.9 mb 0.00 in0.0 mm 0.00 in0.0 mm 0.00 in0.0 mm
07:35 AM 50.0°F10.0°C 46.4°F8.0°C 88% 4.1 mph SE6.6 kmh SE 6.3 mph10.1 kmh 29.45 in997.3 mb 0.00 in0.0 mm 0.00 in0.0 mm 0.00 in0.0 mm
07:30 AM 50.0°F10.0°C 46.4°F8.0°C 88% 4.8 mph SE7.7 kmh SE 8.7 mph14.0 kmh 29.45 in997.3 mb 0.00 in0.0 mm 0.00 in0.0 mm 0.00 in0.0 mm
07:25 AM 49.8°F9.9°C 46.4°F8.0°C 88% 5.4 mph SE8.7 kmh SE 8.7 mph14.0 kmh 29.45 in997.3 mb 0.00 in0.0 mm 0.00 in0.0 mm 0.00 in0.0 mm
07:20 AM 49.6°F9.8°C 46.4°F8.0°C 88% 5.3 mph SE8.5 kmh SE 6.9 mph11.1 kmh 29.45 in997.3 mb 0.00 in0.0 mm 0.00 in0.0 mm 0.00 in0.0 mm
07:15 AM 49.6°F9.8°C 46.4°F8.0°C 88% 5.2 mph SE8.4 kmh SE 8.1 mph13.0 kmh 29.45 in997.3 mb 0.00 in0.0 mm 0.00 in0.0 mm 0.00 in0.0 mm
07:10 AM 49.5°F9.7°C 46.4°F8.0°C 88% 4.5 mph SE7.2 kmh SE 8.1 mph13.0 kmh 29.45 in997.3 mb 0.00 in0.0 mm 0.00 in0.0 mm 0.00 in0.0 mm
07:05 AM 49.3°F9.6°C 46.4°F8.0°C 88% 3.4 mph SE5.5 kmh SE 4.3 mph6.9 kmh 29.45 in997.3 mb 0.00 in0.0 mm 0.00 in0.0 mm 0.00 in0.0 mm
07:00 AM 49.3°F9.6°C 46.4°F8.0°C 88% 2.0 mph ESE3.2 kmh ESE 2.0 mph3.2 kmh 29.45 in997.3 mb 0.00 in0.0 mm 0.00 in0.0 mm 0.00 in0.0 mm
06:55 AM 49.1°F9.5°C 46.4°F8.0°C 88% 2.0 mph ESE3.2 kmh ESE 2.0 mph3.2 kmh 29.45 in997.3 mb 0.00 in0.0 mm 0.00 in0.0 mm 0.00 in0.0 mm
06:50 AM 48.9°F9.4°C 46.4°F8.0°C 88% 2.0 mph ESE3.2 kmh ESE 2.0 mph3.2 kmh 29.45 in997.3 mb 0.00 in0.0 mm 0.00 in0.0 mm 0.00 in0.0 mm
06:45 AM 48.7°F9.3°C 46.4°F8.0°C 88% 2.0 mph ESE3.2 kmh ESE 2.0 mph3.2 kmh 29.45 in997.3 mb 0.00 in0.0 mm 0.00 in0.0 mm 0.00 in0.0 mm
06:40 AM 48.6°F9.2°C 46.4°F8.0°C 88% 2.0 mph ESE3.2 kmh ESE 2.0 mph3.2 kmh 29.45 in997.3 mb 0.00 in0.0 mm 0.00 in0.0 mm 0.00 in0.0 mm
06:35 AM 48.4°F9.1°C 44.6°F7.0°C 88% 2.0 mph ESE3.2 kmh ESE 2.0 mph3.2 kmh 29.45 in997.3 mb 0.00 in0.0 mm 0.00 in0.0 mm 0.00 in0.0 mm
06:30 AM 48.2°F9.0°C 44.6°F7.0°C 88% 4.0 mph SSE6.4 kmh SSE 4.0 mph6.4 kmh 29.45 in997.3 mb 0.00 in0.0 mm 0.00 in0.0 mm 0.00 in0.0 mm
06:25 AM 48.0°F8.9°C 44.6°F7.0°C 87% 4.0 mph SSE6.4 kmh SSE 4.0 mph6.4 kmh 29.45 in997.3 mb 0.00 in0.0 mm 0.00 in0.0 mm 0.00 in0.0 mm
06:20 AM 47.8°F8.8°C 44.6°F7.0°C 87% 4.0 mph SSE6.4 kmh SSE 4.0 mph6.4 kmh 29.45 in997.3 mb 0.00 in0.0 mm 0.00 in0.0 mm 0.00 in0.0 mm
06:15 AM 48.0°F8.9°C 44.6°F7.0°C 87% 4.0 mph SSE6.4 kmh SSE 4.0 mph6.4 kmh 29.45 in997.3 mb 0.00 in0.0 mm 0.00 in0.0 mm 0.00 in0.0 mm
06:10 AM 48.0°F8.9°C 44.6°F7.0°C 87% 4.0 mph SSE6.4 kmh SSE 4.0 mph6.4 kmh 29.45 in997.3 mb 0.00 in0.0 mm 0.00 in0.0 mm 0.00 in0.0 mm
06:05 AM 48.2°F9.0°C 44.6°F7.0°C 87% 4.0 mph SSE6.4 kmh SSE 4.0 mph6.4 kmh 29.45 in997.3 mb 0.00 in0.0 mm 0.00 in0.0 mm 0.00 in0.0 mm
06:00 AM 48.4°F9.1°C 44.6°F7.0°C 87% 4.0 mph SSE6.4 kmh SSE 4.0 mph6.4 kmh 29.45 in997.3 mb 0.00 in0.0 mm 0.00 in0.0 mm 0.00 in0.0 mm
05:55 AM 48.6°F9.2°C 46.4°F8.0°C 87% 3.6 mph SE5.8 kmh SE 4.9 mph7.9 kmh 29.45 in997.3 mb 0.00 in0.0 mm 0.00 in0.0 mm 0.00 in0.0 mm
05:50 AM 48.6°F9.2°C 46.4°F8.0°C 87% 4.4 mph SE7.1 kmh SE 6.5 mph10.5 kmh 29.45 in997.3 mb 0.00 in0.0 mm 0.00 in0.0 mm 0.00 in0.0 mm
05:45 AM 48.6°F9.2°C 46.4°F8.0°C 87% 4.9 mph SE7.9 kmh SE 6.5 mph10.5 kmh 29.45 in997.3 mb 0.00 in0.0 mm 0.00 in0.0 mm 0.00 in0.0 mm
05:40 AM 48.6°F9.2°C 46.4°F8.0°C 87% 4.1 mph SE6.6 kmh SE 6.5 mph10.5 kmh 29.45 in997.3 mb 0.00 in0.0 mm 0.00 in0.0 mm 0.00 in0.0 mm
05:35 AM 48.6°F9.2°C 46.4°F8.0°C 87% 4.3 mph SE6.9 kmh SE 6.0 mph9.7 kmh 29.45 in997.3 mb 0.00 in0.0 mm 0.00 in0.0 mm 0.00 in0.0 mm
05:30 AM 48.6°F9.2°C 46.4°F8.0°C 87% 4.2 mph SE6.8 kmh SE 6.0 mph9.7 kmh 29.45 in997.3 mb 0.00 in0.0 mm 0.00 in0.0 mm 0.00 in0.0 mm
05:25 AM 48.7°F9.3°C 46.4°F8.0°C 87% 3.1 mph SSE5.0 kmh SSE 3.4 mph5.5 kmh 29.45 in997.3 mb 0.00 in0.0 mm 0.00 in0.0 mm 0.00 in0.0 mm
05:20 AM 48.7°F9.3°C 46.4°F8.0°C 87% 4.0 mph SSE6.4 kmh SSE 6.0 mph9.7 kmh 29.45 in997.3 mb 0.00 in0.0 mm 0.00 in0.0 mm 0.00 in0.0 mm
05:15 AM 48.6°F9.2°C 46.4°F8.0°C 87% 3.7 mph SE6.0 kmh SE 6.0 mph9.7 kmh 29.45 in997.3 mb 0.00 in0.0 mm 0.00 in0.0 mm 0.00 in0.0 mm
05:10 AM 48.6°F9.2°C 46.4°F8.0°C 87% 3.0 mph SE4.8 kmh SE 6.0 mph9.7 kmh 29.45 in997.3 mb 0.00 in0.0 mm 0.00 in0.0 mm 0.00 in0.0 mm
05:05 AM 48.4°F9.1°C 44.6°F7.0°C 88% 2.5 mph ESE4.0 kmh ESE 2.5 mph4.0 kmh 29.47 in998.0 mb 0.00 in0.0 mm 0.00 in0.0 mm 0.00 in0.0 mm
05:00 AM 48.2°F9.0°C 44.6°F7.0°C 88% 3.2 mph SE5.1 kmh SE 4.0 mph6.4 kmh 29.47 in998.0 mb 0.00 in0.0 mm 0.00 in0.0 mm 0.00 in0.0 mm
04:55 AM 48.0°F8.9°C 44.6°F7.0°C 88% 3.8 mph SE6.1 kmh SE 4.0 mph6.4 kmh 29.47 in998.0 mb 0.00 in0.0 mm 0.00 in0.0 mm 0.00 in0.0 mm
04:50 AM 47.8°F8.8°C 44.6°F7.0°C 88% 3.5 mph ESE5.6 kmh ESE 3.6 mph5.8 kmh 29.47 in998.0 mb 0.00 in0.0 mm 0.00 in0.0 mm 0.00 in0.0 mm
04:45 AM 47.8°F8.8°C 44.6°F7.0°C 88% 3.2 mph E5.1 kmh E 3.6 mph5.8 kmh 29.47 in998.0 mb 0.00 in0.0 mm 0.00 in0.0 mm 0.00 in0.0 mm
04:40 AM 47.7°F8.7°C 44.6°F7.0°C 88% 3.1 mph SE5.0 kmh SE 4.0 mph6.4 kmh 29.47 in998.0 mb 0.00 in0.0 mm 0.00 in0.0 mm 0.00 in0.0 mm
04:35 AM 47.5°F8.6°C 44.6°F7.0°C 88% 3.5 mph SE5.6 kmh SE 4.0 mph6.4 kmh 29.47 in998.0 mb 0.00 in0.0 mm 0.00 in0.0 mm 0.00 in0.0 mm
04:30 AM 47.3°F8.5°C 44.6°F7.0°C 88% 1.8 mph SE2.9 kmh SE 4.0 mph6.4 kmh 29.47 in998.0 mb 0.00 in0.0 mm 0.00 in0.0 mm 0.00 in0.0 mm
04:25 AM 47.3°F8.5°C 44.6°F7.0°C 88% 0.3 mph ESE0.5 kmh ESE 1.3 mph2.1 kmh 29.47 in998.0 mb 0.00 in0.0 mm 0.00 in0.0 mm 0.00 in0.0 mm
04:20 AM 47.3°F8.5°C 44.6°F7.0°C 88% 0.4 mph ESE0.6 kmh ESE 1.3 mph2.1 kmh 29.47 in998.0 mb 0.00 in0.0 mm 0.00 in0.0 mm 0.00 in0.0 mm
04:15 AM 47.3°F8.5°C 44.6°F7.0°C 88% 0.2 mph ESE0.3 kmh ESE 1.1 mph1.8 kmh 29.47 in998.0 mb 0.00 in0.0 mm 0.00 in0.0 mm 0.00 in0.0 mm
04:10 AM 47.3°F8.5°C 44.6°F7.0°C 88% 0.1 mph ESE0.2 kmh ESE 1.1 mph1.8 kmh 29.47 in998.0 mb 0.00 in0.0 mm 0.00 in0.0 mm 0.00 in0.0 mm
04:05 AM 47.3°F8.5°C 44.6°F7.0°C 88% Calm Calm -- 29.47 in998.0 mb 0.00 in0.0 mm 0.00 in0.0 mm 0.00 in0.0 mm
04:00 AM 47.3°F8.5°C 44.6°F7.0°C 88% Calm Calm -- 29.47 in998.0 mb 0.00 in0.0 mm 0.00 in0.0 mm 0.00 in0.0 mm
03:55 AM 47.3°F8.5°C 44.6°F7.0°C 88% Calm Calm -- 29.47 in998.0 mb 0.00 in0.0 mm 0.00 in0.0 mm 0.00 in0.0 mm
03:50 AM 47.1°F8.4°C 44.6°F7.0°C 88% Calm Calm -- 29.47 in998.0 mb 0.00 in0.0 mm 0.00 in0.0 mm 0.00 in0.0 mm
03:45 AM 47.3°F8.5°C 44.6°F7.0°C 88% Calm Calm -- 29.47 in998.0 mb 0.00 in0.0 mm 0.00 in0.0 mm 0.00 in0.0 mm
03:40 AM 47.3°F8.5°C 44.6°F7.0°C 88% Calm Calm -- 29.47 in998.0 mb 0.00 in0.0 mm 0.00 in0.0 mm 0.00 in0.0 mm
03:35 AM 47.5°F8.6°C 44.6°F7.0°C 88% Calm Calm -- 29.47 in998.0 mb 0.00 in0.0 mm 0.00 in0.0 mm 0.00 in0.0 mm
03:30 AM 47.7°F8.7°C 44.6°F7.0°C 88% 0.3 mph SSE0.5 kmh SSE 2.2 mph3.5 kmh 29.47 in998.0 mb 0.00 in0.0 mm 0.00 in0.0 mm 0.00 in0.0 mm
03:25 AM 48.0°F8.9°C 44.6°F7.0°C 88% 0.5 mph SSE0.8 kmh SSE 2.2 mph3.5 kmh 29.47 in998.0 mb 0.00 in0.0 mm 0.00 in0.0 mm 0.00 in0.0 mm
03:20 AM 48.2°F9.0°C 44.6°F7.0°C 88% 0.5 mph SSE0.8 kmh SSE 2.2 mph3.5 kmh 29.47 in998.0 mb 0.00 in0.0 mm 0.00 in0.0 mm 0.00 in0.0 mm
03:15 AM 48.4°F9.1°C 44.6°F7.0°C 88% 1.3 mph S2.1 kmh S 2.7 mph4.3 kmh 29.47 in998.0 mb 0.00 in0.0 mm 0.00 in0.0 mm 0.00 in0.0 mm
03:10 AM 48.7°F9.3°C 46.4°F8.0°C 88% 1.9 mph S3.1 kmh S 2.7 mph4.3 kmh 29.47 in998.0 mb 0.00 in0.0 mm 0.00 in0.0 mm 0.00 in0.0 mm
03:05 AM 48.9°F9.4°C 46.4°F8.0°C 88% 2.2 mph SSE3.5 kmh SSE 2.2 mph3.5 kmh 29.50 in999.0 mb 0.00 in0.0 mm 0.00 in0.0 mm 0.00 in0.0 mm
03:00 AM 49.1°F9.5°C 46.4°F8.0°C 88% 2.2 mph SSE3.5 kmh SSE 2.2 mph3.5 kmh 29.50 in999.0 mb 0.00 in0.0 mm 0.00 in0.0 mm 0.00 in0.0 mm
02:55 AM 49.3°F9.6°C 46.4°F8.0°C 88% 2.5 mph SSE4.0 kmh SSE 2.5 mph4.0 kmh 29.50 in999.0 mb 0.00 in0.0 mm 0.00 in0.0 mm 0.00 in0.0 mm
02:50 AM 49.3°F9.6°C 46.4°F8.0°C 88% 2.5 mph SSE4.0 kmh SSE 2.5 mph4.0 kmh 29.50 in999.0 mb 0.00 in0.0 mm 0.00 in0.0 mm 0.00 in0.0 mm
02:45 AM 49.3°F9.6°C 46.4°F8.0°C 88% 2.5 mph SSE4.0 kmh SSE 2.5 mph4.0 kmh 29.50 in999.0 mb 0.00 in0.0 mm 0.00 in0.0 mm 0.00 in0.0 mm
02:40 AM 49.5°F9.7°C 46.4°F8.0°C 88% 2.5 mph SSE4.0 kmh SSE 2.5 mph4.0 kmh 29.50 in999.0 mb 0.00 in0.0 mm 0.00 in0.0 mm 0.00 in0.0 mm
02:35 AM 49.5°F9.7°C 46.4°F8.0°C 88% 2.5 mph SSE4.0 kmh SSE 2.5 mph4.0 kmh 29.50 in999.0 mb 0.00 in0.0 mm 0.00 in0.0 mm 0.00 in0.0 mm
02:30 AM 49.6°F9.8°C 46.4°F8.0°C 88% 2.5 mph SSE4.0 kmh SSE 2.5 mph4.0 kmh 29.50 in999.0 mb 0.00 in0.0 mm 0.00 in0.0 mm 0.00 in0.0 mm
02:25 AM 49.8°F9.9°C 46.4°F8.0°C 88% 2.5 mph SSE4.0 kmh SSE 2.5 mph4.0 kmh 29.50 in999.0 mb 0.00 in0.0 mm 0.00 in0.0 mm 0.00 in0.0 mm
02:20 AM 49.8°F9.9°C 46.4°F8.0°C 88% 2.5 mph SSE4.0 kmh SSE 2.5 mph4.0 kmh 29.50 in999.0 mb 0.00 in0.0 mm 0.00 in0.0 mm 0.00 in0.0 mm
02:15 AM 50.2°F10.1°C 46.4°F8.0°C 88% 3.6 mph SSW5.8 kmh SSW 4.0 mph6.4 kmh 29.50 in999.0 mb 0.00 in0.0 mm 0.00 in0.0 mm 0.00 in0.0 mm
02:10 AM 50.4°F10.2°C 48.2°F9.0°C 88% 4.0 mph SSW6.4 kmh SSW 4.0 mph6.4 kmh 29.50 in999.0 mb 0.00 in0.0 mm 0.00 in0.0 mm 0.00 in0.0 mm
02:05 AM 50.4°F10.2°C 48.2°F9.0°C 88% 4.0 mph SSW6.4 kmh SSW 4.0 mph6.4 kmh 29.50 in999.0 mb 0.00 in0.0 mm 0.00 in0.0 mm 0.00 in0.0 mm
02:00 AM 50.5°F10.3°C 48.2°F9.0°C 88% 3.5 mph S5.6 kmh S 4.0 mph6.4 kmh 29.50 in999.0 mb 0.00 in0.0 mm 0.00 in0.0 mm 0.00 in0.0 mm
01:55 AM 50.7°F10.4°C 48.2°F9.0°C 88% 2.7 mph S4.3 kmh S 4.0 mph6.4 kmh 29.50 in999.0 mb 0.00 in0.0 mm 0.00 in0.0 mm 0.00 in0.0 mm
01:50 AM 50.9°F10.5°C 48.2°F9.0°C 88% 2.5 mph S4.0 kmh S 3.8 mph6.1 kmh 29.50 in999.0 mb 0.00 in0.0 mm 0.00 in0.0 mm 0.00 in0.0 mm
01:45 AM 50.9°F10.5°C 48.2°F9.0°C 88% 2.7 mph SSE4.3 kmh SSE 3.8 mph6.1 kmh 29.50 in999.0 mb 0.00 in0.0 mm 0.00 in0.0 mm 0.00 in0.0 mm
01:40 AM 50.9°F10.5°C 48.2°F9.0°C 88% 2.8 mph SE4.5 kmh SE 3.6 mph5.8 kmh 29.50 in999.0 mb 0.00 in0.0 mm 0.00 in0.0 mm 0.00 in0.0 mm
01:35 AM 50.9°F10.5°C 48.2°F9.0°C 88% 2.2 mph SSE3.5 kmh SSE 3.6 mph5.8 kmh 29.50 in999.0 mb 0.00 in0.0 mm 0.00 in0.0 mm 0.00 in0.0 mm
01:30 AM 51.1°F10.6°C 48.2°F9.0°C 88% 2.2 mph S3.5 kmh S 3.8 mph6.1 kmh 29.50 in999.0 mb 0.00 in0.0 mm 0.00 in0.0 mm 0.00 in0.0 mm
01:25 AM 51.1°F10.6°C 48.2°F9.0°C 88% 3.1 mph SSE5.0 kmh SSE 3.8 mph6.1 kmh 29.50 in999.0 mb 0.00 in0.0 mm 0.00 in0.0 mm 0.00 in0.0 mm
01:20 AM 51.1°F10.6°C 48.2°F9.0°C 88% 3.8 mph SSE6.1 kmh SSE 3.8 mph6.1 kmh 29.50 in999.0 mb 0.00 in0.0 mm 0.00 in0.0 mm 0.00 in0.0 mm
01:15 AM 50.9°F10.5°C 48.2°F9.0°C 88% 3.9 mph S6.3 kmh S 4.3 mph6.9 kmh 29.50 in999.0 mb 0.00 in0.0 mm 0.00 in0.0 mm 0.00 in0.0 mm
01:10 AM 50.9°F10.5°C 48.2°F9.0°C 88% 4.7 mph S7.6 kmh S 6.9 mph11.1 kmh 29.50 in999.0 mb 0.00 in0.0 mm 0.00 in0.0 mm 0.00 in0.0 mm
01:05 AM 50.7°F10.4°C 48.2°F9.0°C 87% 4.4 mph S7.1 kmh S 6.9 mph11.1 kmh 29.50 in999.0 mb 0.00 in0.0 mm 0.00 in0.0 mm 0.00 in0.0 mm
01:00 AM 50.5°F10.3°C 48.2°F9.0°C 87% 2.9 mph SSE4.7 kmh SSE 2.9 mph4.7 kmh 29.50 in999.0 mb 0.00 in0.0 mm 0.00 in0.0 mm 0.00 in0.0 mm
12:55 AM 50.5°F10.3°C 48.2°F9.0°C 87% 2.8 mph SSE4.5 kmh SSE 2.9 mph4.7 kmh 29.50 in999.0 mb 0.00 in0.0 mm 0.00 in0.0 mm 0.00 in0.0 mm
12:50 AM 50.4°F10.2°C 48.2°F9.0°C 87% 2.5 mph SE4.0 kmh SE 2.9 mph4.7 kmh 29.53 in1000.0 mb 0.00 in0.0 mm 0.00 in0.0 mm 0.00 in0.0 mm
12:45 AM 50.4°F10.2°C 48.2°F9.0°C 87% 2.3 mph SE3.7 kmh SE 2.5 mph4.0 kmh 29.53 in1000.0 mb 0.00 in0.0 mm 0.00 in0.0 mm 0.00 in0.0 mm
12:40 AM 50.4°F10.2°C 48.2°F9.0°C 87% 2.4 mph SE3.9 kmh SE 2.5 mph4.0 kmh 29.53 in1000.0 mb 0.00 in0.0 mm 0.00 in0.0 mm 0.00 in0.0 mm
12:35 AM 50.4°F10.2°C 48.2°F9.0°C 87% 2.5 mph SSE4.0 kmh SSE 2.5 mph4.0 kmh 29.53 in1000.0 mb 0.00 in0.0 mm 0.00 in0.0 mm 0.00 in0.0 mm
12:30 AM 50.2°F10.1°C 46.4°F8.0°C 87% 2.8 mph SSE4.5 kmh SSE 3.8 mph6.1 kmh 29.53 in1000.0 mb 0.00 in0.0 mm 0.00 in0.0 mm 0.00 in0.0 mm
12:25 AM 50.2°F10.1°C 46.4°F8.0°C 87% 2.4 mph SSE3.9 kmh SSE 3.8 mph6.1 kmh 29.53 in1000.0 mb 0.00 in0.0 mm 0.00 in0.0 mm 0.00 in0.0 mm
12:20 AM 50.0°F10.0°C 46.4°F8.0°C 87% 0.9 mph SSE1.4 kmh SSE 0.9 mph1.4 kmh 29.53 in1000.0 mb 0.00 in0.0 mm 0.00 in0.0 mm 0.00 in0.0 mm
12:15 AM 50.0°F10.0°C 46.4°F8.0°C 87% 0.9 mph SSE1.4 kmh SSE 0.9 mph1.4 kmh 29.53 in1000.0 mb 0.00 in0.0 mm 0.00 in0.0 mm 0.00 in0.0 mm
12:10 AM 49.8°F9.9°C 46.4°F8.0°C 87% 2.6 mph SSE4.2 kmh SSE 5.8 mph9.3 kmh 29.53 in1000.0 mb 0.00 in0.0 mm 0.00 in0.0 mm 0.00 in0.0 mm
12:05 AM 49.6°F9.8°C 46.4°F8.0°C 87% 3.6 mph SE5.8 kmh SE 5.8 mph9.3 kmh 29.53 in1000.0 mb 0.00 in0.0 mm 0.00 in0.0 mm 0.00 in0.0 mm
12:00 AM 49.6°F9.8°C 46.4°F8.0°C 87% 3.7 mph SE6.0 kmh SE 4.3 mph6.9 kmh 29.53 in1000.0 mb 0.00 in0.0 mm 0.00 in0.0 mm 0.00 in0.0 mm